HiltRWIS Atmospheric Data: 07/12/2019 Summary  Detailed Graphs  Station List

  Temperature     Wind Precipitation Visibility
Timestamp Air Wet
Bulb
Dew-
point
24-hr
Max
24-hr
Min
Relative
Humidity
Atmospheric
Pressure
Avg
Speed
Avg
Dir
Spot
Speed
Spot
Dir
Max
Speed
Max
Dir
  Rate Situation Start End 1 hr 3 hr 6 hr 12 hr 24 hr   Situation
Date Time °F °F °F °F °F % in Hg mph ° mph ° mph ° Y/N in/hr text Date Time Date Time in in in in in mi text
07/12/2019 12:15 AM 69.08 60.08 54.14 87.08 53.06 58.0 Not Reported 7.83 N 2.91 NW 9.40 N No 0.000 No Precipitation 05/28/2019 01:54 PM 05/28/2019 01:59 PM 0.000 0.000 0.000 0.000 0.000 Not Reported Not Reported
07/12/2019 12:26 AM 68.90 60.08 54.32 87.08 53.06 59.0 Not Reported 6.49 NW 9.40 N 9.84 N No 0.000 No Precipitation 05/28/2019 01:54 PM 05/28/2019 01:59 PM 0.000 0.000 0.000 0.000 0.000 Not Reported Not Reported
07/12/2019 12:42 AM 68.54 59.90 54.32 87.08 53.06 60.0 Not Reported 7.61 N 2.46 N 7.38 NW No 0.000 No Precipitation 05/28/2019 01:54 PM 05/28/2019 01:59 PM 0.000 0.000 0.000 0.000 0.000 Not Reported Not Reported
07/12/2019 01:11 AM 64.94 58.28 53.60 87.08 53.06 66.0 Not Reported 3.80 N 3.36 NW 7.16 NW No 0.000 No Precipitation 05/28/2019 01:54 PM 05/28/2019 01:59 PM 0.000 0.000 0.000 0.000 0.000 Not Reported Not Reported
07/12/2019 01:30 AM 62.78 57.02 52.88 87.08 53.06 70.0 Not Reported 1.79 E 2.01 E 2.68 E No 0.000 No Precipitation 05/28/2019 01:54 PM 05/28/2019 01:59 PM 0.000 0.000 0.000 0.000 0.000 Not Reported Not Reported
07/12/2019 01:41 AM 62.60 57.20 53.42 87.08 53.06 71.0 Not Reported 2.91 S 2.91 S 2.68 E No 0.000 No Precipitation 05/28/2019 01:54 PM 05/28/2019 01:59 PM 0.000 0.000 0.000 0.000 0.000 Not Reported Not Reported
07/12/2019 01:59 AM 62.24 56.48 52.52 87.08 53.06 70.0 Not Reported 2.46 SE 1.57 S 4.03 S No 0.000 No Precipitation 05/28/2019 01:54 PM 05/28/2019 01:59 PM 0.000 0.000 0.000 0.000 0.000 Not Reported Not Reported
07/12/2019 02:12 AM 60.80 55.76 51.98 87.08 53.06 72.0 Not Reported 1.57 SE 1.34 SE 3.36 SE No 0.000 No Precipitation 05/28/2019 01:54 PM 05/28/2019 01:59 PM 0.000 0.000 0.000 0.000 0.000 Not Reported Not Reported
07/12/2019 02:27 AM 60.44 55.76 52.34 87.08 53.06 74.0 Not Reported 2.01 SE 2.46 SE 2.24 SE No 0.000 No Precipitation 05/28/2019 01:54 PM 05/28/2019 01:59 PM 0.000 0.000 0.000 0.000 0.000 Not Reported Not Reported
07/12/2019 02:43 AM 60.44 55.76 52.34 87.08 53.06 74.0 Not Reported 1.79 SE 2.01 E 3.13 SE No 0.000 No Precipitation 05/28/2019 01:54 PM 05/28/2019 01:59 PM 0.000 0.000 0.000 0.000 0.000 Not Reported Not Reported
07/12/2019 02:59 AM 59.00 55.22 52.34 87.08 53.06 78.0 Not Reported 1.34 SE 1.34 SE 2.46 SE No 0.000 No Precipitation 05/28/2019 01:54 PM 05/28/2019 01:59 PM 0.000 0.000 0.000 0.000 0.000 Not Reported Not Reported
07/12/2019 03:11 AM 59.18 55.58 53.06 87.08 53.06 79.0 Not Reported 1.34 E 1.12 E 2.24 E No 0.000 No Precipitation 05/28/2019 01:54 PM 05/28/2019 01:59 PM 0.000 0.000 0.000 0.000 0.000 Not Reported Not Reported
07/12/2019 03:26 AM 58.46 55.04 52.34 87.08 53.06 80.0 Not Reported 1.79 SE 2.24 SE 2.24 E No 0.000 No Precipitation 05/28/2019 01:54 PM 05/28/2019 01:59 PM 0.000 0.000 0.000 0.000 0.000 Not Reported Not Reported
07/12/2019 03:41 AM 57.74 54.50 52.16 87.08 53.06 81.0 Not Reported 2.01 E 2.24 E 2.68 E No 0.000 No Precipitation 05/28/2019 01:54 PM 05/28/2019 01:59 PM 0.000 0.000 0.000 0.000 0.000 Not Reported Not Reported
07/12/2019 03:56 AM 57.92 54.86 52.70 87.08 53.06 82.0 Not Reported 2.46 E 2.46 E 2.46 E No 0.000 No Precipitation 05/28/2019 01:54 PM 05/28/2019 01:59 PM 0.000 0.000 0.000 0.000 0.000 Not Reported Not Reported
07/12/2019 04:11 AM 57.92 54.86 52.88 87.08 53.06 83.0 Not Reported 2.24 E 2.01 E 2.68 E No 0.000 No Precipitation 05/28/2019 01:54 PM 05/28/2019 01:59 PM 0.000 0.000 0.000 0.000 0.000 Not Reported Not Reported
07/12/2019 04:26 AM 57.56 54.86 52.70 87.08 53.06 83.0 Not Reported 2.46 E 2.68 E 2.68 E No 0.000 No Precipitation 05/28/2019 01:54 PM 05/28/2019 01:59 PM 0.000 0.000 0.000 0.000 0.000 Not Reported Not Reported
07/12/2019 04:41 AM 57.20 54.50 52.52 87.08 53.06 84.0 Not Reported 2.68 E 2.91 E 2.91 E No 0.000 No Precipitation 05/28/2019 01:54 PM 05/28/2019 01:59 PM 0.000 0.000 0.000 0.000 0.000 Not Reported Not Reported
07/12/2019 04:56 AM 57.74 55.04 53.24 87.08 53.06 84.0 Not Reported 2.46 E 2.91 E 2.91 E No 0.000 No Precipitation 05/28/2019 01:54 PM 05/28/2019 01:59 PM 0.000 0.000 0.000 0.000 0.000 Not Reported Not Reported
07/12/2019 05:12 AM 57.38 54.50 52.70 87.08 53.06 84.0 Not Reported 3.58 E 3.80 E 3.36 E No 0.000 No Precipitation 05/28/2019 01:54 PM 05/28/2019 01:59 PM 0.000 0.000 0.000 0.000 0.000 Not Reported Not Reported
07/12/2019 05:27 AM 57.38 54.68 52.88 87.08 53.06 85.0 Not Reported 3.13 E 1.57 E 4.47 E No 0.000 No Precipitation 05/28/2019 01:54 PM 05/28/2019 01:59 PM 0.000 0.000 0.000 0.000 0.000 Not Reported Not Reported
07/12/2019 05:42 AM 56.66 54.32 52.70 87.08 53.06 86.0 Not Reported 1.34 E 1.79 E 2.68 E No 0.000 No Precipitation 05/28/2019 01:54 PM 05/28/2019 01:59 PM 0.000 0.000 0.000 0.000 0.000 Not Reported Not Reported
07/12/2019 05:56 AM 56.48 54.32 52.70 87.08 53.06 87.0 Not Reported 1.12 SE 0.00 SE 2.91 E No 0.000 No Precipitation 05/28/2019 01:54 PM 05/28/2019 01:59 PM 0.000 0.000 0.000 0.000 0.000 Not Reported Not Reported
07/12/2019 06:11 AM 56.48 54.32 52.70 87.08 53.06 87.0 Not Reported 1.57 E 1.57 E 2.46 E No 0.000 No Precipitation 05/28/2019 01:54 PM 05/28/2019 01:59 PM 0.000 0.000 0.000 0.000 0.000 Not Reported Not Reported
07/12/2019 06:29 AM 55.58 53.60 52.16 87.08 53.06 87.0 Not Reported 2.01 E 1.34 NE 2.01 NE No 0.000 No Precipitation 05/28/2019 01:54 PM 05/28/2019 01:59 PM 0.000 0.000 0.000 0.000 0.000 Not Reported Not Reported
07/12/2019 06:43 AM 55.04 53.06 51.62 87.08 53.06 88.0 Not Reported 1.34 E 0.89 E 1.57 E No 0.000 No Precipitation 05/28/2019 01:54 PM 05/28/2019 01:59 PM 0.000 0.000 0.000 0.000 0.000 Not Reported Not Reported
07/12/2019 06:58 AM 55.22 53.42 51.98 87.08 53.06 88.0 Not Reported 1.34 E 1.34 E 2.01 E No 0.000 No Precipitation 05/28/2019 01:54 PM 05/28/2019 01:59 PM 0.000 0.000 0.000 0.000 0.000 Not Reported Not Reported
07/12/2019 07:12 AM 55.58 53.78 52.34 87.08 53.06 89.0 Not Reported 2.01 E 2.46 E 2.01 E No 0.000 No Precipitation 05/28/2019 01:54 PM 05/28/2019 01:59 PM 0.000 0.000 0.000 0.000 0.000 Not Reported Not Reported
07/12/2019 07:27 AM 55.58 53.78 52.52 87.08 53.24 89.0 Not Reported 0.00 NE 0.00 N 2.91 E No 0.000 No Precipitation 05/28/2019 01:54 PM 05/28/2019 01:59 PM 0.000 0.000 0.000 0.000 0.000 Not Reported Not Reported
07/12/2019 07:41 AM 56.12 54.32 53.06 87.08 53.78 89.0 Not Reported 2.01 E 2.01 E 2.01 E No 0.000 No Precipitation 05/28/2019 01:54 PM 05/28/2019 01:59 PM 0.000 0.000 0.000 0.000 0.000 Not Reported Not Reported
07/12/2019 08:12 AM 56.84 54.86 53.42 87.08 54.14 88.0 Not Reported 1.34 E 0.00 N 2.24 E No 0.000 No Precipitation 05/28/2019 01:54 PM 05/28/2019 01:59 PM 0.000 0.000 0.000 0.000 0.000 Not Reported Not Reported
07/12/2019 08:27 AM 59.36 56.66 54.86 87.08 54.86 85.0 Not Reported 0.45 NE 0.89 NE 1.57 E No 0.000 No Precipitation 05/28/2019 01:54 PM 05/28/2019 01:59 PM 0.000 0.000 0.000 0.000 0.000 Not Reported Not Reported
07/12/2019 08:44 AM 62.60 58.10 55.22 87.08 54.86 76.0 Not Reported 1.12 E 0.89 E 0.45 NE No 0.000 No Precipitation 05/28/2019 01:54 PM 05/28/2019 01:59 PM 0.000 0.000 0.000 0.000 0.000 Not Reported Not Reported
07/12/2019 08:58 AM 65.12 59.00 54.86 87.08 54.86 69.0 Not Reported 0.22 S 0.45 S 1.34 E No 0.000 No Precipitation 05/28/2019 01:54 PM 05/28/2019 01:59 PM 0.000 0.000 0.000 0.000 0.000 Not Reported Not Reported
07/12/2019 09:12 AM 67.10 59.54 54.68 87.08 54.86 64.0 Not Reported 1.34 SW 0.89 SW 1.12 S No 0.000 No Precipitation 05/28/2019 01:54 PM 05/28/2019 01:59 PM 0.000 0.000 0.000 0.000 0.000 Not Reported Not Reported
07/12/2019 09:27 AM 68.54 60.08 54.68 87.08 54.86 61.0 Not Reported 0.00 SW 0.67 S 1.57 SW No 0.000 No Precipitation 05/28/2019 01:54 PM 05/28/2019 01:59 PM 0.000 0.000 0.000 0.000 0.000 Not Reported Not Reported
07/12/2019 09:42 AM 69.80 60.62 54.50 87.08 54.86 57.0 Not Reported 0.89 SW 1.12 W 1.79 W No 0.000 No Precipitation 05/28/2019 01:54 PM 05/28/2019 01:59 PM 0.000 0.000 0.000 0.000 0.000 Not Reported Not Reported
07/12/2019 09:57 AM 70.52 60.80 54.68 87.08 54.86 57.0 Not Reported 2.91 S 1.34 SW 2.24 W No 0.000 No Precipitation 05/28/2019 01:54 PM 05/28/2019 01:59 PM 0.000 0.000 0.000 0.000 0.000 Not Reported Not Reported
07/12/2019 10:13 AM 71.60 61.34 54.68 87.08 54.86 54.0 Not Reported 3.80 S 2.68 S 4.47 S No 0.000 No Precipitation 05/28/2019 01:54 PM 05/28/2019 01:59 PM 0.000 0.000 0.000 0.000 0.000 Not Reported Not Reported
07/12/2019 10:26 AM 71.60 60.98 54.50 87.08 54.86 54.0 Not Reported 5.37 S 6.71 SE 9.17 S No 0.000 No Precipitation 05/28/2019 01:54 PM 05/28/2019 01:59 PM 0.000 0.000 0.000 0.000 0.000 Not Reported Not Reported
07/12/2019 10:42 AM 72.86 61.52 54.32 87.08 54.86 52.0 Not Reported 7.61 S 6.93 S 9.17 S No 0.000 No Precipitation 05/28/2019 01:54 PM 05/28/2019 01:59 PM 0.000 0.000 0.000 0.000 0.000 Not Reported Not Reported
07/12/2019 10:57 AM 73.40 61.70 54.32 87.08 54.86 51.0 Not Reported 5.82 S 6.26 S 8.28 S No 0.000 No Precipitation 05/28/2019 01:54 PM 05/28/2019 01:59 PM 0.000 0.000 0.000 0.000 0.000 Not Reported Not Reported
07/12/2019 11:15 AM 75.38 62.42 54.32 87.08 54.86 47.0 Not Reported 7.38 S 5.82 S 7.61 S No 0.000 No Precipitation 05/28/2019 01:54 PM 05/28/2019 01:59 PM 0.000 0.000 0.000 0.000 0.000 Not Reported Not Reported
07/12/2019 11:42 AM 78.08 62.96 53.06 87.08 54.86 41.0 Not Reported 2.01 S 3.58 S 7.38 S No 0.000 No Precipitation 05/28/2019 01:54 PM 05/28/2019 01:59 PM 0.000 0.000 0.000 0.000 0.000 Not Reported Not Reported
07/12/2019 11:57 AM 78.62 63.14 53.24 87.08 54.86 41.0 Not Reported 4.92 S 6.93 S 5.59 S No 0.000 No Precipitation 05/28/2019 01:54 PM 05/28/2019 01:59 PM 0.000 0.000 0.000 0.000 0.000 Not Reported Not Reported
07/12/2019 12:14 PM 79.70 63.14 52.70 87.08 54.86 39.0 Not Reported 4.03 SW 3.36 SW 6.93 S No 0.000 No Precipitation 05/28/2019 01:54 PM 05/28/2019 01:59 PM 0.000 0.000 0.000 0.000 0.000 Not Reported Not Reported
07/12/2019 12:26 PM 79.88 63.14 52.70 87.08 54.86 38.0 Not Reported 0.89 S 6.26 SW 5.59 S No 0.000 No Precipitation 05/28/2019 01:54 PM 05/28/2019 01:59 PM 0.000 0.000 0.000 0.000 0.000 Not Reported Not Reported
07/12/2019 12:43 PM 81.14 62.78 50.72 87.08 54.86 34.0 Not Reported 4.03 SE 6.04 S 6.49 S No 0.000 No Precipitation 05/28/2019 01:54 PM 05/28/2019 01:59 PM 0.000 0.000 0.000 0.000 0.000 Not Reported Not Reported
07/12/2019 12:59 PM 83.12 63.32 50.36 87.08 54.86 32.0 Not Reported 3.13 S 2.91 S 7.83 S No 0.000 No Precipitation 05/28/2019 01:54 PM 05/28/2019 01:59 PM 0.000 0.000 0.000 0.000 0.000 Not Reported Not Reported
07/12/2019 01:12 PM 83.48 63.32 50.00 87.08 54.86 31.0 Not Reported 4.47 S 6.93 SW 6.26 S No 0.000 No Precipitation 05/28/2019 01:54 PM 05/28/2019 01:59 PM 0.000 0.000 0.000 0.000 0.000 Not Reported Not Reported
07/12/2019 01:30 PM 83.12 63.32 50.18 87.08 54.86 31.0 Not Reported 3.58 NW 4.03 NW 4.92 NW No 0.000 No Precipitation 05/28/2019 01:54 PM 05/28/2019 01:59 PM 0.000 0.000 0.000 0.000 0.000 Not Reported Not Reported
07/12/2019 01:41 PM 84.74 63.32 48.92 87.08 54.86 28.0 Not Reported 5.82 NE 7.61 E 6.93 SW No 0.000 No Precipitation 05/28/2019 01:54 PM 05/28/2019 01:59 PM 0.000 0.000 0.000 0.000 0.000 Not Reported Not Reported
07/12/2019 01:58 PM 85.28 62.96 47.84 87.08 54.86 27.0 Not Reported 6.49 S 6.71 S 7.61 E No 0.000 No Precipitation 05/28/2019 01:54 PM 05/28/2019 01:59 PM 0.000 0.000 0.000 0.000 0.000 Not Reported Not Reported
07/12/2019 02:12 PM 86.36 63.68 48.38 87.08 54.86 26.0 Not Reported 3.80 NW 0.67 NW 6.49 SW No 0.000 No Precipitation 05/28/2019 01:54 PM 05/28/2019 01:59 PM 0.000 0.000 0.000 0.000 0.000 Not Reported Not Reported
07/12/2019 02:28 PM 85.46 63.32 48.38 87.08 54.86 27.0 Not Reported 1.79 NW 2.91 NW 6.71 SW No 0.000 No Precipitation 05/28/2019 01:54 PM 05/28/2019 01:59 PM 0.000 0.000 0.000 0.000 0.000 Not Reported Not Reported
07/12/2019 02:41 PM 87.08 64.58 50.18 87.62 54.86 28.0 Not Reported 5.82 N 11.18 NW 9.40 N No 0.000 No Precipitation 05/28/2019 01:54 PM 05/28/2019 01:59 PM 0.000 0.000 0.000 0.000 0.000 Not Reported Not Reported
07/12/2019 02:56 PM 85.82 66.20 54.50 87.80 54.86 34.0 Not Reported 7.61 N 5.59 N 11.18 NW No 0.000 No Precipitation 05/28/2019 01:54 PM 05/28/2019 01:59 PM 0.000 0.000 0.000 0.000 0.000 Not Reported Not Reported
07/12/2019 03:43 PM 85.82 66.02 54.14 87.98 54.86 33.0 Not Reported 8.95 N 4.92 NE 13.42 N No 0.000 No Precipitation 05/28/2019 01:54 PM 05/28/2019 01:59 PM 0.000 0.000 0.000 0.000 0.000 Not Reported Not Reported
07/12/2019 03:57 PM 86.72 66.92 55.58 87.98 54.86 34.0 Not Reported 7.16 N 6.26 NW 13.20 N No 0.000 No Precipitation 05/28/2019 01:54 PM 05/28/2019 01:59 PM 0.000 0.000 0.000 0.000 0.000 Not Reported Not Reported
07/12/2019 04:12 PM 86.54 66.38 54.50 87.98 54.86 33.0 Not Reported 5.82 NE 4.03 NE 10.51 N No 0.000 No Precipitation 05/28/2019 01:54 PM 05/28/2019 01:59 PM 0.000 0.000 0.000 0.000 0.000 Not Reported Not Reported
07/12/2019 04:41 PM 86.90 66.74 54.68 87.98 54.86 33.0 Not Reported 6.49 N 5.14 N 12.75 N No 0.000 No Precipitation 05/28/2019 01:54 PM 05/28/2019 01:59 PM 0.000 0.000 0.000 0.000 0.000 Not Reported Not Reported
07/12/2019 04:58 PM 87.26 66.02 53.06 87.98 54.86 31.0 Not Reported 7.83 N 14.99 N 9.62 N No 0.000 No Precipitation 05/28/2019 01:54 PM 05/28/2019 01:59 PM 0.000 0.000 0.000 0.000 0.000 Not Reported Not Reported
07/12/2019 05:11 PM 86.54 66.38 54.32 87.98 54.86 33.0 Not Reported 7.83 N 7.83 N 15.88 N No 0.000 No Precipitation 05/28/2019 01:54 PM 05/28/2019 01:59 PM 0.000 0.000 0.000 0.000 0.000 Not Reported Not Reported
07/12/2019 05:29 PM 84.92 65.84 54.68 87.98 54.86 35.0 Not Reported 10.29 N 6.71 NW 12.30 N No 0.000 No Precipitation 05/28/2019 01:54 PM 05/28/2019 01:59 PM 0.000 0.000 0.000 0.000 0.000 Not Reported Not Reported
07/12/2019 05:41 PM 86.00 66.02 54.32 87.98 54.86 33.0 Not Reported 9.84 N 7.38 NE 15.21 N No 0.000 No Precipitation 05/28/2019 01:54 PM 05/28/2019 01:59 PM 0.000 0.000 0.000 0.000 0.000 Not Reported Not Reported
07/12/2019 05:58 PM 85.64 66.02 54.14 87.98 54.86 34.0 Not Reported 8.95 N 8.05 N 14.76 N No 0.000 No Precipitation 05/28/2019 01:54 PM 05/28/2019 01:59 PM 0.000 0.000 0.000 0.000 0.000 Not Reported Not Reported
07/12/2019 06:12 PM 84.74 65.84 54.50 87.98 54.86 35.0 Not Reported 5.14 NE 4.70 NE 13.20 NE No 0.000 No Precipitation 05/28/2019 01:54 PM 05/28/2019 01:59 PM 0.000 0.000 0.000 0.000 0.000 Not Reported Not Reported
07/12/2019 06:26 PM 84.02 65.48 54.32 87.98 54.86 36.0 Not Reported 9.84 NE 7.61 N 14.54 NE No 0.000 No Precipitation 05/28/2019 01:54 PM 05/28/2019 01:59 PM 0.000 0.000 0.000 0.000 0.000 Not Reported Not Reported
07/12/2019 06:44 PM 84.20 65.30 53.96 87.98 54.86 35.0 Not Reported 7.83 N 8.05 N 13.42 NE No 0.000 No Precipitation 05/28/2019 01:54 PM 05/28/2019 01:59 PM 0.000 0.000 0.000 0.000 0.000 Not Reported Not Reported
07/12/2019 06:59 PM 83.12 64.94 54.14 87.98 54.86 36.0 Not Reported 6.49 N 5.82 NE 12.53 NE No 0.000 No Precipitation 05/28/2019 01:54 PM 05/28/2019 01:59 PM 0.000 0.000 0.000 0.000 0.000 Not Reported Not Reported
07/12/2019 07:13 PM 83.30 64.58 53.06 87.98 54.86 35.0 Not Reported 9.84 N 8.28 N 14.32 NW No 0.000 No Precipitation 05/28/2019 01:54 PM 05/28/2019 01:59 PM 0.000 0.000 0.000 0.000 0.000 Not Reported Not Reported
07/12/2019 07:27 PM 82.76 64.58 53.24 87.98 54.86 36.0 Not Reported 8.95 N 9.62 NE 11.41 N No 0.000 No Precipitation 05/28/2019 01:54 PM 05/28/2019 01:59 PM 0.000 0.000 0.000 0.000 0.000 Not Reported Not Reported
07/12/2019 07:41 PM 81.86 63.86 52.52 87.98 54.86 36.0 Not Reported 9.84 N 10.51 NW 14.54 NE No 0.000 No Precipitation 05/28/2019 01:54 PM 05/28/2019 01:59 PM 0.000 0.000 0.000 0.000 0.000 Not Reported Not Reported
07/12/2019 07:59 PM 81.14 63.50 52.16 87.98 54.86 36.0 Not Reported 7.38 NE 5.59 N 14.32 N No 0.000 No Precipitation 05/28/2019 01:54 PM 05/28/2019 01:59 PM 0.000 0.000 0.000 0.000 0.000 Not Reported Not Reported
07/12/2019 08:12 PM 80.78 63.14 51.80 87.98 54.86 36.0 Not Reported 9.84 N 10.74 NE 13.20 E No 0.000 No Precipitation 05/28/2019 01:54 PM 05/28/2019 01:59 PM 0.000 0.000 0.000 0.000 0.000 Not Reported Not Reported
07/12/2019 08:28 PM 79.88 63.14 52.34 87.98 54.86 38.0 Not Reported 8.50 N 5.82 N 12.97 NE No 0.000 No Precipitation 05/28/2019 01:54 PM 05/28/2019 01:59 PM 0.000 0.000 0.000 0.000 0.000 Not Reported Not Reported
07/12/2019 08:45 PM 78.08 62.78 53.06 87.98 54.86 41.0 Not Reported 10.51 N 9.62 N 13.65 N No 0.000 No Precipitation 05/28/2019 01:54 PM 05/28/2019 01:59 PM 0.000 0.000 0.000 0.000 0.000 Not Reported Not Reported
07/12/2019 08:57 PM 77.54 62.60 52.88 87.98 54.86 42.0 Not Reported 9.17 N 14.09 NW 15.43 NE No 0.000 No Precipitation 05/28/2019 01:54 PM 05/28/2019 01:59 PM 0.000 0.000 0.000 0.000 0.000 Not Reported Not Reported
07/12/2019 09:27 PM 74.84 61.52 52.70 87.98 54.86 46.0 Not Reported 10.07 N 16.33 NE 17.22 N No 0.000 No Precipitation 05/28/2019 01:54 PM 05/28/2019 01:59 PM 0.000 0.000 0.000 0.000 0.000 Not Reported Not Reported
07/12/2019 09:41 PM 74.30 61.34 53.06 87.98 54.86 47.0 Not Reported 10.51 N 9.84 N 12.08 NE No 0.000 No Precipitation 05/28/2019 01:54 PM 05/28/2019 01:59 PM 0.000 0.000 0.000 0.000 0.000 Not Reported Not Reported
07/12/2019 09:57 PM 73.58 61.16 53.06 87.98 54.86 48.0 Not Reported 6.04 N 6.04 NW 12.08 NE No 0.000 No Precipitation 05/28/2019 01:54 PM 05/28/2019 01:59 PM 0.000 0.000 0.000 0.000 0.000 Not Reported Not Reported
07/12/2019 10:11 PM 72.86 60.98 53.06 87.98 54.86 49.0 Not Reported 9.17 N 6.71 NW 10.74 N No 0.000 No Precipitation 05/28/2019 01:54 PM 05/28/2019 01:59 PM 0.000 0.000 0.000 0.000 0.000 Not Reported Not Reported
07/12/2019 10:26 PM 72.50 60.80 53.24 87.98 54.86 50.0 Not Reported 12.30 N 10.51 NW 12.75 N No 0.000 No Precipitation 05/28/2019 01:54 PM 05/28/2019 01:59 PM 0.000 0.000 0.000 0.000 0.000 Not Reported Not Reported
07/12/2019 10:42 PM 71.78 60.62 53.24 87.98 54.86 51.0 Not Reported 7.83 N 10.29 N 12.53 N No 0.000 No Precipitation 05/28/2019 01:54 PM 05/28/2019 01:59 PM 0.000 0.000 0.000 0.000 0.000 Not Reported Not Reported
07/12/2019 10:56 PM 71.60 60.62 53.24 87.98 54.86 52.0 Not Reported 9.40 NE 10.74 N 13.42 N No 0.000 No Precipitation 05/28/2019 01:54 PM 05/28/2019 01:59 PM 0.000 0.000 0.000 0.000 0.000 Not Reported Not Reported
07/12/2019 11:11 PM 71.06 60.44 53.24 87.98 54.86 53.0 Not Reported 7.61 NE 6.26 N 13.20 N No 0.000 No Precipitation 05/28/2019 01:54 PM 05/28/2019 01:59 PM 0.000 0.000 0.000 0.000 0.000 Not Reported Not Reported
07/12/2019 11:26 PM 70.52 60.26 53.42 87.98 54.86 54.0 Not Reported 5.37 N 5.37 NW 10.29 N No 0.000 No Precipitation 05/28/2019 01:54 PM 05/28/2019 01:59 PM 0.000 0.000 0.000 0.000 0.000 Not Reported Not Reported
07/12/2019 11:41 PM 70.16 60.26 53.78 87.98 54.86 55.0 Not Reported 9.40 N 10.29 N 12.53 N No 0.000 No Precipitation 05/28/2019 01:54 PM 05/28/2019 01:59 PM 0.000 0.000 0.000 0.000 0.000 Not Reported Not Reported
07/12/2019 11:59 PM 69.44 60.26 54.14 87.98 54.86 57.0 Not Reported 6.26 N 8.28 N 11.86 N No 0.000 No Precipitation 05/28/2019 01:54 PM 05/28/2019 01:59 PM 0.000 0.000 0.000 0.000 0.000 Not Reported Not Reported